createdAt,value
2018-11-23T00:02:24.461Z,68.33
2018-11-23T00:04:51.874Z,65.30
2018-11-23T00:07:19.274Z,62.90
2018-11-23T00:09:46.701Z,75.23
2018-11-23T00:12:14.091Z,74.03
2018-11-23T00:14:41.498Z,74.50
2018-11-23T00:17:08.886Z,79.97
2018-11-23T00:19:36.289Z,74.80
2018-11-23T00:22:03.809Z,74.37
2018-11-23T00:24:31.214Z,75.63
2018-11-23T00:26:58.600Z,75.57
2018-11-23T00:29:26.026Z,74.47
2018-11-23T00:31:53.425Z,76.47
2018-11-23T00:34:20.839Z,69.13
2018-11-23T00:36:48.252Z,71.30
2018-11-23T00:39:15.657Z,71.03
2018-11-23T00:41:43.054Z,82.93
2018-11-23T00:44:10.503Z,79.27
2018-11-23T00:46:37.895Z,80.37
2018-11-23T00:49:05.596Z,84.23
2018-11-23T00:51:32.994Z,80.47
2018-11-23T00:54:00.390Z,76.93
2018-11-23T00:56:27.788Z,75.53
2018-11-23T00:58:55.221Z,74.47
2018-11-23T01:01:22.650Z,84.20
2018-11-23T01:03:50.038Z,79.03
2018-11-23T01:06:17.470Z,88.07
2018-11-23T01:08:44.875Z,83.57
2018-11-23T01:11:12.306Z,78.10
2018-11-23T01:13:39.705Z,75.40
2018-11-23T01:16:07.118Z,82.73
2018-11-23T01:18:34.516Z,85.00
2018-11-23T01:21:01.939Z,78.47
2018-11-23T01:23:29.350Z,86.70
2018-11-23T01:25:56.754Z,76.33
2018-11-23T01:28:24.164Z,88.60
2018-11-23T01:30:51.570Z,88.37
2018-11-23T01:33:18.959Z,82.00
2018-11-23T01:35:46.370Z,83.17
2018-11-23T01:38:13.761Z,72.70
2018-11-23T01:40:41.194Z,78.43
2018-11-23T01:43:08.591Z,71.60
2018-11-23T01:45:36.039Z,70.17
2018-11-23T01:48:03.442Z,76.30
2018-11-23T01:50:30.846Z,79.60
2018-11-23T01:52:58.549Z,82.27
2018-11-23T01:55:26.444Z,74.27
2018-11-23T01:57:53.854Z,71.97
2018-11-23T02:00:22.586Z,68.87
2018-11-23T02:02:50.738Z,59.93
2018-11-23T02:05:18.162Z,64.70
2018-11-23T02:07:45.554Z,69.10
2018-11-23T02:10:14.355Z,71.47
2018-11-23T02:12:41.786Z,71.33
2018-11-23T02:15:10.884Z,61.93
2018-11-23T02:17:38.285Z,65.57
2018-11-23T02:20:07.918Z,67.40
2018-11-23T02:22:35.323Z,61.47
2018-11-23T02:25:02.766Z,62.87
2018-11-23T02:27:30.178Z,63.40
2018-11-23T02:29:57.646Z,65.53
2018-11-23T02:32:25.063Z,62.73
2018-11-23T02:34:52.449Z,59.00
2018-11-23T02:37:19.858Z,64.00
2018-11-23T02:39:47.250Z,59.67
2018-11-23T02:42:14.684Z,63.70
2018-11-23T02:44:42.086Z,66.03
2018-11-23T02:47:09.570Z,58.00
2018-11-23T02:49:37.255Z,65.37
2018-11-23T02:52:04.992Z,64.20
2018-11-23T02:54:32.380Z,69.17
2018-11-23T02:56:59.786Z,66.73
2018-11-23T02:59:27.170Z,70.57
2018-11-23T03:01:54.590Z,76.53
2018-11-23T03:04:22.014Z,73.83
2018-11-23T03:06:49.444Z,73.40
2018-11-23T03:09:16.834Z,64.93
2018-11-23T03:11:44.305Z,69.77
2018-11-23T03:14:11.673Z,74.23
2018-11-23T03:16:39.078Z,70.53
2018-11-23T03:19:07.445Z,64.33
2018-11-23T03:21:34.854Z,60.27
2018-11-23T03:24:02.243Z,64.57
2018-11-23T03:26:29.657Z,69.17
2018-11-23T03:28:57.038Z,67.37
2018-11-23T03:31:25.230Z,78.20
2018-11-23T03:33:53.074Z,73.13
2018-11-23T03:36:21.068Z,65.87
2018-11-23T03:38:49.116Z,61.20
2018-11-23T03:41:16.599Z,66.97
2018-11-23T03:43:44.138Z,66.63
2018-11-23T03:46:11.566Z,66.93
2018-11-23T03:48:38.958Z,69.47
2018-11-23T03:51:06.526Z,72.57
2018-11-23T03:53:33.907Z,74.73
2018-11-23T03:56:01.301Z,63.10
2018-11-23T03:58:28.719Z,63.97
2018-11-23T04:00:56.117Z,65.27
2018-11-23T04:03:23.527Z,64.63
2018-11-23T04:05:50.959Z,71.67
2018-11-23T04:08:18.394Z,62.57
2018-11-23T04:10:45.785Z,65.30
2018-11-23T04:13:13.194Z,62.93
2018-11-23T04:15:40.589Z,57.67
2018-11-23T04:18:08.016Z,68.37
2018-11-23T04:20:35.406Z,71.93
2018-11-23T04:23:02.842Z,59.47
2018-11-23T04:25:30.237Z,66.33
2018-11-23T04:27:57.710Z,63.43
2018-11-23T04:30:25.142Z,60.27
2018-11-23T04:32:52.548Z,69.10
2018-11-23T04:35:19.972Z,62.13
2018-11-23T04:37:47.795Z,64.60
2018-11-23T04:40:16.250Z,69.80
2018-11-23T04:42:43.670Z,64.23
2018-11-23T04:45:11.470Z,60.90
2018-11-23T04:47:39.254Z,63.83
2018-11-23T04:50:08.283Z,63.43
2018-11-23T04:52:35.685Z,60.47
2018-11-23T04:55:03.162Z,60.00
2018-11-23T04:57:30.577Z,62.63
2018-11-23T04:59:58.255Z,73.40
2018-11-23T05:02:25.734Z,65.37
2018-11-23T05:04:53.120Z,61.57
2018-11-23T05:07:20.859Z,61.43
2018-11-23T05:09:48.250Z,65.37
2018-11-23T05:12:15.676Z,63.27
2018-11-23T05:14:43.058Z,68.27
2018-11-23T05:17:10.472Z,62.33
2018-11-23T05:19:37.863Z,68.27
2018-11-23T05:22:05.485Z,70.87
2018-11-23T05:24:32.878Z,61.97
2018-11-23T05:27:00.286Z,58.67
2018-11-23T05:29:27.729Z,62.67
2018-11-23T05:31:55.202Z,68.30
2018-11-23T05:34:22.631Z,60.50
2018-11-23T05:36:50.042Z,67.20
2018-11-23T05:39:17.479Z,68.07
2018-11-23T05:41:44.871Z,66.83
2018-11-23T05:44:12.310Z,65.90
2018-11-23T05:46:39.689Z,58.47
2018-11-23T05:49:07.098Z,63.43
2018-11-23T05:51:34.509Z,65.03
2018-11-23T05:54:01.931Z,62.33
2018-11-23T05:56:29.314Z,69.20
2018-11-23T05:58:56.745Z,59.00
2018-11-23T06:01:24.159Z,66.23
2018-11-23T06:03:51.566Z,69.20
2018-11-23T06:06:18.945Z,74.57
2018-11-23T06:08:46.350Z,69.37
2018-11-23T06:11:13.735Z,64.47
2018-11-23T06:13:41.142Z,64.47
2018-11-23T06:16:08.530Z,67.17
2018-11-23T06:18:35.941Z,59.67
2018-11-23T06:21:03.358Z,65.10
2018-11-23T06:23:30.770Z,62.63
2018-11-23T06:26:17.173Z,61.23
2018-11-23T06:28:44.584Z,59.33
2018-11-23T06:31:12.478Z,59.77
2018-11-23T06:33:44.158Z,62.43
2018-11-23T06:36:11.550Z,67.17
2018-11-23T06:38:39.032Z,57.27
2018-11-23T06:41:10.438Z,58.90
2018-11-23T06:43:34.775Z,66.77
2018-11-23T06:46:03.194Z,65.53
2018-11-23T06:48:30.615Z,64.67
2018-11-23T06:50:58.022Z,63.77
2018-11-23T06:53:25.750Z,63.33
2018-11-23T06:55:53.309Z,68.27
2018-11-23T06:58:20.746Z,71.57
2018-11-23T07:00:48.171Z,68.70
2018-11-23T07:03:15.586Z,70.10
2018-11-23T07:05:43.001Z,63.83
2018-11-23T07:08:11.114Z,67.63
2018-11-23T07:10:38.498Z,66.17
2018-11-23T07:13:06.194Z,68.27
2018-11-23T07:15:33.622Z,65.67
2018-11-23T07:18:01.030Z,68.53
2018-11-23T07:20:28.454Z,70.37
2018-11-23T07:22:55.986Z,69.17
2018-11-23T07:25:23.426Z,60.70
2018-11-23T07:27:50.896Z,70.93
2018-11-23T07:30:20.058Z,68.63
2018-11-23T07:32:47.459Z,75.07
2018-11-23T07:35:15.377Z,79.80
2018-11-23T07:37:43.126Z,87.60
2018-11-23T07:40:23.402Z,77.40
2018-11-23T07:42:51.139Z,77.80
2018-11-23T07:45:18.563Z,76.80
2018-11-23T07:47:46.018Z,64.87
2018-11-23T07:50:13.446Z,71.33
2018-11-23T07:52:40.850Z,73.90
2018-11-23T07:55:09.674Z,84.30
2018-11-23T07:57:37.113Z,76.87
2018-11-23T08:00:10.735Z,71.23
2018-11-23T08:02:38.134Z,79.03
2018-11-23T08:05:07.638Z,76.53
2018-11-23T08:07:35.069Z,74.80
2018-11-23T08:10:02.022Z,77.17
2018-11-23T08:12:29.417Z,71.77
2018-11-23T08:14:57.006Z,75.93
2018-11-23T08:17:24.412Z,78.77
2018-11-23T08:19:51.879Z,73.57
2018-11-23T08:22:19.326Z,72.10
2018-11-23T08:24:46.763Z,75.20
2018-11-23T08:27:14.170Z,74.13
2018-11-23T08:29:41.592Z,72.13
2018-11-23T08:32:09.053Z,70.77
2018-11-23T08:34:36.557Z,86.10
2018-11-23T08:37:04.005Z,80.57
2018-11-23T08:39:31.430Z,72.60
2018-11-23T08:41:58.821Z,73.73
2018-11-23T08:44:26.244Z,76.93
2018-11-23T08:46:53.635Z,82.07
2018-11-23T08:49:21.026Z,84.07
2018-11-23T08:51:48.443Z,79.57
2018-11-23T08:54:15.850Z,79.40
2018-11-23T08:56:43.338Z,79.23
2018-11-23T08:59:10.738Z,78.57
2018-11-23T09:01:38.166Z,78.90
2018-11-23T09:04:05.575Z,74.30
2018-11-23T09:06:32.997Z,72.07
2018-11-23T09:09:00.398Z,76.43
2018-11-23T09:11:31.114Z,77.03
2018-11-23T09:13:58.509Z,74.47
2018-11-23T09:16:26.049Z,63.50
2018-11-23T09:18:53.450Z,60.40
2018-11-23T09:21:20.879Z,58.77
2018-11-23T09:23:48.278Z,51.67
2018-11-23T09:26:15.699Z,50.13
2018-11-23T09:28:43.090Z,53.53
2018-11-23T09:31:10.530Z,57.90
2018-11-23T09:33:37.931Z,49.93
2018-11-23T09:36:05.371Z,51.53
2018-11-23T09:38:32.774Z,51.87
2018-11-23T09:41:00.201Z,51.87
2018-11-23T09:43:27.585Z,50.10
2018-11-23T09:45:54.993Z,48.37
2018-11-23T09:48:22.385Z,48.97
2018-11-23T09:50:49.797Z,50.53
2018-11-23T09:53:17.205Z,46.30
2018-11-23T09:55:44.613Z,45.67
2018-11-23T09:58:12.069Z,48.27
2018-11-23T10:00:39.486Z,45.07
2018-11-23T10:03:07.219Z,45.97
2018-11-23T10:08:04.906Z,48.00
2018-11-23T10:10:32.365Z,44.20
2018-11-23T10:12:59.758Z,43.73
2018-11-23T10:15:28.427Z,43.57
2018-11-23T10:17:55.849Z,38.43
2018-11-23T10:20:24.558Z,43.23
2018-11-23T10:22:51.970Z,41.10
2018-11-23T10:25:21.711Z,39.70
2018-11-23T10:27:49.153Z,41.23
2018-11-23T10:30:18.151Z,38.57
2018-11-23T10:32:46.558Z,42.57
2018-11-23T10:35:13.975Z,42.07
2018-11-23T10:37:42.179Z,41.60
2018-11-23T10:40:13.090Z,43.27
2018-11-23T10:42:40.889Z,41.90
2018-11-23T10:45:14.050Z,42.67
2018-11-23T10:47:41.482Z,41.73
2018-11-23T10:50:11.906Z,42.17
2018-11-23T10:52:39.350Z,40.47
2018-11-23T10:55:10.842Z,42.87
2018-11-23T10:57:38.298Z,43.03
2018-11-23T11:00:12.778Z,36.50
2018-11-23T11:02:42.372Z,40.87
2018-11-23T11:05:15.429Z,40.17
2018-11-23T11:07:42.879Z,39.47
2018-11-23T11:10:10.283Z,39.17
2018-11-23T11:12:37.763Z,39.80
2018-11-23T11:15:06.002Z,41.23
2018-11-23T11:17:33.414Z,40.33
2018-11-23T11:20:00.801Z,41.20
2018-11-23T11:22:28.206Z,38.83
2018-11-23T11:24:55.598Z,40.90
2018-11-23T11:27:23.030Z,40.60
2018-11-23T11:29:50.440Z,42.87
2018-11-23T11:32:17.866Z,41.00
2018-11-23T11:34:45.309Z,40.33
2018-11-23T11:37:12.709Z,40.43
2018-11-23T11:39:40.115Z,43.60
2018-11-23T11:42:07.813Z,49.40
2018-11-23T11:44:35.205Z,44.20
2018-11-23T11:47:02.620Z,48.47
2018-11-23T11:49:30.046Z,45.30
2018-11-23T11:51:57.469Z,40.63
2018-11-23T11:54:24.878Z,46.40
2018-11-23T11:56:52.285Z,43.30
2018-11-23T11:59:19.674Z,47.57
2018-11-23T12:01:47.126Z,46.17
2018-11-23T12:04:14.527Z,45.23
2018-11-23T12:06:41.950Z,46.60
2018-11-23T12:09:10.410Z,45.27
2018-11-23T12:11:37.862Z,45.20
2018-11-23T12:14:05.353Z,44.80
2018-11-23T12:16:32.773Z,44.03
2018-11-23T12:19:00.174Z,49.70
2018-11-23T12:21:27.606Z,48.20
2018-11-23T12:23:55.005Z,48.83
2018-11-23T12:26:22.422Z,46.53
2018-11-23T12:28:49.857Z,50.43
2018-11-23T12:31:17.262Z,45.63
2018-11-23T12:33:44.758Z,49.40
2018-11-23T12:36:12.183Z,48.60
2018-11-23T12:38:43.034Z,48.83
2018-11-23T12:41:07.027Z,49.03
2018-11-23T12:43:34.459Z,46.00
2018-11-23T12:46:01.865Z,50.13
2018-11-23T12:48:29.289Z,46.30
2018-11-23T12:50:56.702Z,47.40
2018-11-23T12:53:24.138Z,48.47
2018-11-23T12:55:51.574Z,51.43
2018-11-23T12:58:19.022Z,48.50
2018-11-23T13:00:46.429Z,51.43
2018-11-23T13:03:13.877Z,50.53
2018-11-23T13:05:41.270Z,53.50
2018-11-23T13:08:08.722Z,49.33
2018-11-23T13:10:36.140Z,43.97
2018-11-23T13:13:03.911Z,49.33
2018-11-23T13:15:31.317Z,50.97
2018-11-23T13:17:59.325Z,53.50
2018-11-23T13:20:26.780Z,52.17
2018-11-23T13:22:54.217Z,50.30
2018-11-23T13:25:24.370Z,51.53
2018-11-23T13:27:51.867Z,50.20
2018-11-23T13:30:22.114Z,57.63
2018-11-23T13:32:49.574Z,50.27
2018-11-23T13:35:17.739Z,49.47
2018-11-23T13:37:45.182Z,49.97
2018-11-23T13:40:14.702Z,51.93
2018-11-23T13:42:42.472Z,53.80
2018-11-23T13:45:11.790Z,49.13
2018-11-23T13:47:39.256Z,47.73
2018-11-23T13:50:08.710Z,55.60
2018-11-23T13:52:36.146Z,52.50
2018-11-23T13:55:04.082Z,53.57
2018-11-23T13:57:31.516Z,49.93
2018-11-23T13:59:58.937Z,49.80
2018-11-23T14:02:26.371Z,47.07
2018-11-23T14:04:53.821Z,53.60
2018-11-23T14:07:21.671Z,51.33
2018-11-23T14:09:49.087Z,49.13
2018-11-23T14:12:16.521Z,52.37
2018-11-23T14:14:44.093Z,52.33
2018-11-23T14:17:11.527Z,48.70
2018-11-23T14:19:38.936Z,51.83
2018-11-23T14:22:06.486Z,48.53
2018-11-23T14:24:39.797Z,45.33
2018-11-23T14:27:07.229Z,44.77
2018-11-23T14:29:34.642Z,45.13
2018-11-23T14:32:02.067Z,47.27
2018-11-23T14:34:29.496Z,46.80
2018-11-23T14:36:57.110Z,48.50
2018-11-23T14:39:24.533Z,47.70
2018-11-23T14:41:51.956Z,49.57
2018-11-23T14:44:19.374Z,48.83
2018-11-23T14:46:46.841Z,50.17
2018-11-23T14:49:14.293Z,50.20
2018-11-23T14:51:41.726Z,46.03
2018-11-23T14:54:09.178Z,47.90
2018-11-23T14:56:36.621Z,51.60
2018-11-23T14:59:04.242Z,51.60
2018-11-23T15:01:31.702Z,52.90
2018-11-23T15:03:59.101Z,49.33
2018-11-23T15:06:26.522Z,52.87
2018-11-23T15:08:53.934Z,54.17
2018-11-23T15:11:21.377Z,57.33
2018-11-23T15:13:48.833Z,53.93
2018-11-23T15:16:16.237Z,53.80
2018-11-23T15:18:43.678Z,54.67
2018-11-23T15:21:11.090Z,58.10
2018-11-23T15:23:38.501Z,62.70
2018-11-23T15:28:40.327Z,57.23
2018-11-23T15:31:07.778Z,61.50
2018-11-23T15:33:35.264Z,58.67
2018-11-23T15:36:02.763Z,63.17
2018-11-23T15:38:30.217Z,66.20
2018-11-23T15:40:57.654Z,59.27
2018-11-23T15:43:25.073Z,64.73
2018-11-23T15:45:52.474Z,66.27
2018-11-23T15:48:19.907Z,61.77
2018-11-23T15:50:47.310Z,63.10
2018-11-23T15:53:15.605Z,66.40
2018-11-23T15:55:43.078Z,65.90
2018-11-23T15:58:12.054Z,65.10
2018-11-23T16:00:40.923Z,77.30
2018-11-23T16:03:09.834Z,76.87
2018-11-23T16:05:37.594Z,66.77
2018-11-23T16:08:07.054Z,80.27
2018-11-23T16:10:35.679Z,73.40
2018-11-23T16:13:10.745Z,80.63
2018-11-23T16:15:32.009Z,74.93
2018-11-23T16:18:00.120Z,66.47
2018-11-23T16:20:30.107Z,69.10
2018-11-23T16:23:00.043Z,70.97
2018-11-23T16:25:27.530Z,68.03
2018-11-23T16:27:57.210Z,76.83
2018-11-23T16:30:28.670Z,74.87
2018-11-23T16:32:57.246Z,95.67
2018-11-23T16:35:26.103Z,76.00
2018-11-23T16:37:54.605Z,92.00
2018-11-23T16:40:24.526Z,81.83
2018-11-23T16:42:52.505Z,72.80
2018-11-23T16:45:22.067Z,75.77
2018-11-23T16:47:49.838Z,97.30
2018-11-23T16:50:17.329Z,90.00
2018-11-23T16:52:45.892Z,101.60
2018-11-23T16:55:14.373Z,101.33
2018-11-23T16:57:43.143Z,78.37
2018-11-23T17:00:14.014Z,81.03
2018-11-23T17:02:41.946Z,140.70
2018-11-23T17:05:10.149Z,159.67
2018-11-23T17:07:37.549Z,247.60
2018-11-23T17:10:07.235Z,227.27
2018-11-23T17:12:34.699Z,271.77
2018-11-23T17:15:02.175Z,147.93
2018-11-23T17:17:29.574Z,226.60
2018-11-23T17:19:57.009Z,262.10
2018-11-23T17:22:24.501Z,79.40
2018-11-23T17:24:52.051Z,49.57
2018-11-23T17:27:19.514Z,53.83
2018-11-23T17:29:46.941Z,53.87
2018-11-23T17:32:14.346Z,48.77
2018-11-23T17:34:41.774Z,52.67
2018-11-23T17:37:09.180Z,57.80
2018-11-23T17:39:36.739Z,66.60
2018-11-23T17:42:04.506Z,52.83
2018-11-23T17:44:32.038Z,51.80
2018-11-23T17:46:59.438Z,47.57
2018-11-23T17:49:26.905Z,45.20
2018-11-23T17:51:54.300Z,43.60
2018-11-23T17:54:21.746Z,41.57
2018-11-23T17:56:49.140Z,50.57
2018-11-23T17:59:16.579Z,47.73
2018-11-23T18:01:43.982Z,42.37
2018-11-23T18:04:11.417Z,57.20
2018-11-23T18:06:38.811Z,42.07
2018-11-23T18:09:06.736Z,40.43
2018-11-23T18:11:34.175Z,43.97
2018-11-23T18:14:01.585Z,44.13
2018-11-23T18:16:29.044Z,39.17
2018-11-23T18:18:56.451Z,39.67
2018-11-23T18:21:24.879Z,36.83
2018-11-23T18:23:51.342Z,40.03
2018-11-23T18:26:18.753Z,43.93
2018-11-23T18:28:52.917Z,39.37
2018-11-23T18:31:20.381Z,42.17
2018-11-23T18:33:47.902Z,43.53
2018-11-23T18:36:15.271Z,37.00
2018-11-23T18:38:42.725Z,37.60
2018-11-23T18:41:10.153Z,39.77
2018-11-23T18:43:37.605Z,39.30
2018-11-23T18:46:05.195Z,39.70
2018-11-23T18:48:32.584Z,34.03
2018-11-23T18:51:00.062Z,40.93
2018-11-23T18:53:27.474Z,39.67
2018-11-23T18:55:54.966Z,35.17
2018-11-23T18:58:22.370Z,37.20
2018-11-23T19:00:49.789Z,36.40
2018-11-23T19:03:17.201Z,36.17
2018-11-23T19:05:44.650Z,33.97
2018-11-23T19:08:12.055Z,38.73
2018-11-23T19:10:39.554Z,45.30
2018-11-23T19:13:06.946Z,78.93
2018-11-23T19:15:34.374Z,51.93
2018-11-23T19:18:01.811Z,39.60
2018-11-23T19:20:29.315Z,36.60
2018-11-23T19:22:56.817Z,37.93
2018-11-23T19:27:58.497Z,43.30
2018-11-23T19:30:28.818Z,39.10
2018-11-23T19:32:53.399Z,38.97
2018-11-23T19:35:20.812Z,38.87
2018-11-23T19:37:48.282Z,36.83
2018-11-23T19:40:15.741Z,44.23
2018-11-23T19:42:44.002Z,46.20
2018-11-23T19:45:12.482Z,42.10
2018-11-23T19:47:39.937Z,45.63
2018-11-23T19:50:09.453Z,39.67
2018-11-23T19:52:36.877Z,34.93
2018-11-23T19:55:04.559Z,35.77
2018-11-23T19:57:32.013Z,39.67
2018-11-23T19:59:59.410Z,36.00
2018-11-23T20:02:26.838Z,35.97
2018-11-23T20:04:54.264Z,39.70
2018-11-23T20:07:21.723Z,41.83
2018-11-23T20:09:49.342Z,41.97
2018-11-23T20:12:16.791Z,41.07
2018-11-23T20:14:44.196Z,37.47
2018-11-23T20:17:11.622Z,40.43
2018-11-23T20:19:39.026Z,35.97
2018-11-23T20:22:06.509Z,40.73
2018-11-23T20:24:33.901Z,41.17
2018-11-23T20:27:01.322Z,44.23
2018-11-23T20:29:28.731Z,41.67
2018-11-23T20:31:56.226Z,42.50
2018-11-23T20:34:23.630Z,41.33
2018-11-23T20:36:51.023Z,42.33
2018-11-23T20:39:18.466Z,39.00
2018-11-23T20:41:45.866Z,43.03
2018-11-23T20:44:13.348Z,43.20
2018-11-23T20:46:40.754Z,39.07
2018-11-23T20:49:08.183Z,47.03
2018-11-23T20:51:35.610Z,43.93
2018-11-23T20:54:03.086Z,45.37
2018-11-23T20:56:30.484Z,43.87
2018-11-23T20:58:57.905Z,44.37
2018-11-23T21:01:25.318Z,47.33
2018-11-23T21:03:52.795Z,43.87
2018-11-23T21:06:20.226Z,45.73
2018-11-23T21:08:47.659Z,46.97
2018-11-23T21:11:15.095Z,48.33
2018-11-23T21:13:42.505Z,51.80
2018-11-23T21:16:09.912Z,52.70
2018-11-23T21:18:37.341Z,50.27
2018-11-23T21:21:05.006Z,58.53
2018-11-23T21:23:32.431Z,51.70
2018-11-23T21:25:59.842Z,56.77
2018-11-23T21:28:27.290Z,58.37
2018-11-23T21:30:54.726Z,55.17
2018-11-23T21:33:22.167Z,61.77
2018-11-23T21:35:49.567Z,54.70
2018-11-23T21:38:16.986Z,55.53
2018-11-23T21:40:44.613Z,58.07
2018-11-23T21:43:11.866Z,56.87
2018-11-23T21:45:39.318Z,59.37
2018-11-23T21:48:06.750Z,53.87
2018-11-23T21:50:34.158Z,56.67
2018-11-23T21:53:01.638Z,58.93
2018-11-23T21:55:29.066Z,53.57
2018-11-23T21:57:56.504Z,66.80
2018-11-23T22:00:24.003Z,56.27
2018-11-23T22:02:51.440Z,57.53
2018-11-23T22:05:18.908Z,56.00
2018-11-23T22:07:46.304Z,60.37
2018-11-23T22:10:15.817Z,57.70
2018-11-23T22:12:43.319Z,60.67
2018-11-23T22:15:26.492Z,61.00
2018-11-23T22:17:55.037Z,64.83
2018-11-23T22:20:23.034Z,58.57
2018-11-23T22:22:50.423Z,62.63
2018-11-23T22:25:18.841Z,54.63
2018-11-23T22:27:46.270Z,64.50
2018-11-23T22:30:16.733Z,68.23
2018-11-23T22:32:44.153Z,67.23
2018-11-23T22:35:12.166Z,76.90
2018-11-23T22:37:39.594Z,76.37
2018-11-23T22:40:11.495Z,78.70
2018-11-23T22:42:39.218Z,84.23
2018-11-23T22:45:09.234Z,92.77
2018-11-23T22:47:36.658Z,83.40
2018-11-23T22:50:05.958Z,89.27
2018-11-23T22:52:33.357Z,84.97
2018-11-23T22:55:00.802Z,91.47
2018-11-23T22:57:28.202Z,92.10
2018-11-23T22:59:55.634Z,94.27
2018-11-23T23:02:23.039Z,90.30
2018-11-23T23:04:50.466Z,78.47
2018-11-23T23:07:17.863Z,74.73
2018-11-23T23:09:45.278Z,69.97
2018-11-23T23:12:12.682Z,74.63
2018-11-23T23:14:40.112Z,78.00
2018-11-23T23:17:07.550Z,73.63
2018-11-23T23:19:34.981Z,83.80
2018-11-23T23:22:02.390Z,87.60
2018-11-23T23:24:29.806Z,82.60
2018-11-23T23:26:57.209Z,75.47
2018-11-23T23:29:24.626Z,77.87
2018-11-23T23:31:52.487Z,96.50
2018-11-23T23:34:19.926Z,88.70
2018-11-23T23:36:47.345Z,94.23
2018-11-23T23:39:14.750Z,75.30
2018-11-23T23:41:42.182Z,87.87
2018-11-23T23:44:09.648Z,89.07
2018-11-23T23:46:37.062Z,89.33
2018-11-23T23:49:04.526Z,87.17
2018-11-23T23:51:31.942Z,91.57
2018-11-23T23:53:59.342Z,82.13
2018-11-23T23:56:26.754Z,78.87
2018-11-23T23:58:54.154Z,78.93
